Eastern Dawn — WDE4132 — position and weather

sailwx.info

Track history (hours):
 
Tides and Currents Weather Stations Pressure Air Temp Water Temp Dewpoint Dewpoint Depression Visibility Wind Speed Wind Dir Waves Ship Positions

Eastern Dawn

Owner: EASTERN BARGE SERVICES INC, SYOSSET, NY. More information available from US FCC via Universal Licensing System and Coast Guard Vessel Documentation Center.

Last reported at 2018-Feb-21 22:30 UTC. Time now 2018-Feb-21 22:58 UTC.
Position N 40°41' W 074°02'.

Length 14 m; draft 2.5 m.

Type: Towing. MMSI: 367349170.

Date/timePositionNaut miles runAvg speedWind from/ knotsBaromVisibWave heightAir tempDewpointWater temp
2018-Feb-21 22:30N 40°41' W 074°02'4 8.4
2018-Feb-21 22:00N 40°44' W 073°58'5 9.5
2018-Feb-21 21:30N 40°48' W 073°54'4 7.8
2018-Feb-21 20:59N 40°48' W 073°49'3 0.2
2018-Feb-21 05:28N 40°52' W 073°49'1 2.6
2018-Feb-21 04:58N 40°51' W 073°48'2 4.4
2018-Feb-21 04:25N 40°48' W 073°48'3 6.0
2018-Feb-21 03:53N 40°48' W 073°52'0 0.1
2018-Feb-21 03:22N 40°48' W 073°52'0 0.0
2018-Feb-21 02:59N 40°48' W 073°52'0 0.0
2018-Feb-21 02:30N 40°48' W 073°52'0 0.0
2018-Feb-21 01:53N 40°48' W 073°52'0 0.0
2018-Feb-21 01:28N 40°48' W 073°52'0 0.0
2018-Feb-21 01:00N 40°48' W 073°52'0 0.1
2018-Feb-21 00:30N 40°48' W 073°52'0 0.1
2018-Feb-20 23:54N 40°48' W 073°52'0 0.1
2018-Feb-20 23:19N 40°48' W 073°52'0 0.0
2018-Feb-20 22:58N 40°48' W 073°52'0 0.0
2018-Feb-20 22:22N 40°48' W 073°52'0 0.0
2018-Feb-20 22:00N 40°48' W 073°52'0 0.0
2018-Feb-20 21:29N 40°48' W 073°52'0 0.0
2018-Feb-20 20:57N 40°48' W 073°52'0 0.0
2018-Feb-20 20:23N 40°48' W 073°52'0 0.0
2018-Feb-20 19:57N 40°48' W 073°52'0 0.0
2018-Feb-20 19:30N 40°48' W 073°52'0 0.0
2018-Feb-20 18:57N 40°48' W 073°52'1 3.1
2018-Feb-20 18:30N 40°48' W 073°54'3 6.1
2018-Feb-20 17:59N 40°46' W 073°57'3 7.1
2018-Feb-20 17:30N 40°42' W 073°59'4 7.4
2018-Feb-20 17:00N 40°40' W 074°03'4 7.0
2018-Feb-20 16:30N 40°39' W 074°07'3 6.9
2018-Feb-20 16:00N 40°38' W 074°11'1 1.9
2018-Feb-20 15:30N 40°38' W 074°12'0 0.0
2018-Feb-20 15:00N 40°38' W 074°12'0 0.0
2018-Feb-20 14:28N 40°38' W 074°12'0 0.0
2018-Feb-20 14:00N 40°38' W 074°12'1 1.7
2018-Feb-20 13:29N 40°37' W 074°12'1 0.1
2018-Feb-20 00:57N 40°36' W 074°12'3 5.9
2018-Feb-20 00:29N 40°38' W 074°12'3 7.1
2018-Feb-20 00:00N 40°39' W 074°07'4 7.5
2018-Feb-19 23:30N 40°40' W 074°03'4 7.5
2018-Feb-19 23:00N 40°43' W 073°59'5 8.6
2018-Feb-19 22:29N 40°47' W 073°56'2 4.4
2018-Feb-19 21:59N 40°48' W 073°54'0 0.0
2018-Feb-19 21:30N 40°48' W 073°54'0 0.0
2018-Feb-19 21:00N 40°48' W 073°54'0 0.0
2018-Feb-19 20:28N 40°48' W 073°54'0 0.0
2018-Feb-19 19:58N 40°48' W 073°54'0 0.0
2018-Feb-19 19:29N 40°48' W 073°54'0 0.0
2018-Feb-19 19:00N 40°48' W 073°54'0 0.0
2018-Feb-19 18:25N 40°48' W 073°54'0 0.0
2018-Feb-19 18:00N 40°48' W 073°54'0 0.0
2018-Feb-19 16:20N 40°48' W 073°54'0 0.0
2018-Feb-19 16:00N 40°48' W 073°54'0 0.0
2018-Feb-19 15:28N 40°48' W 073°54'0 0.0
2018-Feb-19 14:57N 40°48' W 073°54'0 0.0
2018-Feb-19 14:02N 40°48' W 073°54'0 0.1
2018-Feb-19 13:57N 40°48' W 073°54'1 2.2
2018-Feb-19 13:30N 40°47' W 073°55'5 9.1
2018-Feb-19 13:00N 40°43' W 073°58'4 8.4
2018-Feb-19 12:30N 40°40' W 074°02'3 5.2
2018-Feb-19 12:00N 40°39' W 074°05'0 0.1
2018-Feb-19 11:30N 40°39' W 074°05'0 0.0
2018-Feb-19 11:00N 40°39' W 074°05'0 0.0
2018-Feb-19 10:30N 40°39' W 074°05'0 0.0
2018-Feb-19 09:59N 40°39' W 074°05'0 0.0
2018-Feb-19 09:30N 40°39' W 074°05'0 0.0
2018-Feb-19 09:00N 40°39' W 074°05'0 0.0
2018-Feb-19 08:28N 40°39' W 074°05'0 0.0
2018-Feb-19 08:00N 40°39' W 074°05'0 0.0
2018-Feb-19 07:30N 40°39' W 074°05'0 0.0
2018-Feb-19 07:00N 40°39' W 074°05'0 0.0
2018-Feb-19 06:30N 40°39' W 074°05'0 0.0
2018-Feb-19 06:00N 40°39' W 074°05'0 0.0
2018-Feb-19 05:30N 40°39' W 074°05'0 0.0
2018-Feb-19 05:00N 40°39' W 074°05'0 0.0
2018-Feb-19 04:30N 40°39' W 074°05'0 0.0
2018-Feb-19 04:00N 40°39' W 074°05'0 0.0
2018-Feb-19 03:30N 40°39' W 074°05'0 0.0
2018-Feb-19 02:59N 40°39' W 074°05'0 0.0
2018-Feb-19 02:30N 40°39' W 074°05'0 0.0
2018-Feb-19 02:00N 40°39' W 074°05'0 0.0
2018-Feb-19 01:30N 40°39' W 074°05'0 0.1
2018-Feb-19 00:59N 40°39' W 074°05'3 5.5
2018-Feb-19 00:30N 40°41' W 074°02'3 6.3
2018-Feb-19 00:00N 40°43' W 073°59'2 4.6
2018-Feb-18 23:30N 40°44' W 073°56'0 0.5
2018-Feb-18 23:00N 40°44' W 073°56'0 0.0
2018-Feb-18 22:30N 40°44' W 073°56'0 0.0
2018-Feb-18 22:00N 40°44' W 073°56'0 0.0
2018-Feb-18 21:30N 40°44' W 073°56'0 0.0
2018-Feb-18 21:00N 40°44' W 073°56'0 0.0
2018-Feb-18 20:30N 40°44' W 073°56'0 0.0
2018-Feb-18 19:59N 40°44' W 073°56'0 0.0
2018-Feb-18 19:30N 40°44' W 073°56'0 0.0
2018-Feb-18 18:59N 40°44' W 073°56'0 0.0
2018-Feb-18 18:21N 40°44' W 073°56'0 0.0
2018-Feb-18 17:59N 40°44' W 073°56'0 0.0
2018-Feb-18 17:30N 40°44' W 073°56'0 0.0
2018-Feb-18 17:00N 40°44' W 073°56'0 0.0
2018-Feb-18 16:30N 40°44' W 073°56'0 0.0
2018-Feb-18 16:00N 40°44' W 073°56'0 0.0
2018-Feb-18 15:30N 40°44' W 073°56'0 0.0
2018-Feb-18 15:00N 40°44' W 073°56'0 0.0
2018-Feb-18 14:30N 40°44' W 073°56'0 0.0
2018-Feb-18 14:00N 40°44' W 073°56'0 0.0
2018-Feb-18 13:30N 40°44' W 073°56'0 0.0
2018-Feb-18 13:00N 40°44' W 073°56'0 0.0
2018-Feb-18 12:30N 40°44' W 073°56'0 0.0
2018-Feb-18 12:00N 40°44' W 073°56'1 1.2
2018-Feb-18 11:30N 40°44' W 073°57'1 2.9
2018-Feb-18 11:00N 40°43' W 073°58'3 6.4
2018-Feb-18 10:30N 40°41' W 074°01'3 6.0
2018-Feb-18 10:00N 40°39' W 074°04'3 6.4
2018-Feb-18 09:30N 40°39' W 074°08'2 4.5
2018-Feb-18 09:00N 40°38' W 074°11'3 5.4
2018-Feb-18 08:30N 40°36' W 074°12'3 5.0
2018-Feb-18 07:57N 40°33' W 074°14'1 0.1
2018-Feb-17 21:32N 40°33' W 074°15'0 0.1
2018-Feb-17 21:27N 40°33' W 074°15'3 4.8
2018-Feb-17 20:53N 40°35' W 074°13'3 7.3
2018-Feb-17 20:30N 40°37' W 074°12'3 6.3
2018-Feb-17 20:00N 40°39' W 074°08'3 6.4
2018-Feb-17 19:30N 40°39' W 074°04'3 5.4
2018-Feb-17 19:00N 40°41' W 074°01'4 7.4
2018-Feb-17 18:30N 40°43' W 073°58'4 8.9
2018-Feb-17 18:00N 40°47' W 073°55'4 8.9
2018-Feb-17 17:30N 40°48' W 073°49'2 3.7
2018-Feb-17 17:00N 40°49' W 073°47'0 0.0
2018-Feb-17 13:43N 40°49' W 073°47'0 0.1
2018-Feb-17 13:30N 40°49' W 073°47'0 0.0
2018-Feb-17 12:36N 40°49' W 073°47'0 0.0
2018-Feb-17 12:30N 40°49' W 073°47'0 0.0
2018-Feb-17 11:09N 40°49' W 073°47'0 0.0
2018-Feb-17 10:59N 40°49' W 073°47'0 0.0
2018-Feb-17 10:26N 40°49' W 073°47'0 0.0
2018-Feb-17 09:50N 40°49' W 073°47'0 0.0
2018-Feb-17 09:22N 40°49' W 073°47'0 0.0
2018-Feb-17 09:00N 40°49' W 073°47'0 0.0
2018-Feb-17 08:12N 40°49' W 073°47'0 0.0
2018-Feb-17 07:56N 40°49' W 073°47'0 0.0
2018-Feb-17 07:29N 40°49' W 073°47'0 0.0
2018-Feb-17 06:57N 40°49' W 073°47'0 0.0
2018-Feb-17 06:27N 40°49' W 073°47'0 0.0
2018-Feb-17 05:58N 40°49' W 073°47'0 0.0
2018-Feb-17 05:27N 40°49' W 073°47'0 0.0
2018-Feb-17 04:59N 40°49' W 073°47'3 0.2
2018-Feb-16 15:34N 40°52' W 073°49'1 1.7
2018-Feb-16 15:14N 40°51' W 073°49'1 5.7
2018-Feb-16 14:59N 40°50' W 073°48'1 1.3
2018-Feb-16 14:30N 40°49' W 073°47'0 0.0
2018-Feb-16 13:58N 40°49' W 073°47'1 1.5
2018-Feb-16 13:30N 40°49' W 073°47'3 5.2
2018-Feb-16 13:00N 40°48' W 073°51'4 7.6
2018-Feb-16 12:29N 40°47' W 073°56'4 8.7
2018-Feb-16 12:00N 40°43' W 073°58'4 8.1
2018-Feb-16 11:30N 40°40' W 074°02'3 6.4
2018-Feb-16 11:00N 40°39' W 074°06'3 5.4
2018-Feb-16 10:29N 40°39' W 074°09'3 5.2
2018-Feb-16 10:00N 40°37' W 074°12'2 0.2
2018-Feb-15 19:12N 40°35' W 074°12'1 7.9
2018-Feb-15 19:00N 40°37' W 074°12'3 6.6
2018-Feb-15 18:30N 40°39' W 074°09'3 6.7
2018-Feb-15 18:00N 40°39' W 074°05'4 8.5
2018-Feb-15 17:30N 40°42' W 074°00'5 9.5
2018-Feb-15 17:00N 40°46' W 073°57'5 9.1
2018-Feb-15 16:30N 40°48' W 073°51'4 0.3
2018-Feb-15 02:52N 40°52' W 073°49'1 3.5
2018-Feb-15 02:28N 40°50' W 073°48'1 0.5
2018-Feb-14 23:42N 40°49' W 073°47'1 5.3
2018-Feb-14 23:26N 40°48' W 073°48'4 8.7
2018-Feb-14 22:58N 40°48' W 073°54'5 9.9
2018-Feb-14 22:30N 40°45' W 073°58'4 8.1
2018-Feb-14 22:00N 40°41' W 074°01'3 7.0
2018-Feb-14 21:30N 40°39' W 074°04'3 5.6
2018-Feb-14 21:00N 40°39' W 074°08'3 5.6
2018-Feb-14 20:30N 40°38' W 074°12'2 4.6
2018-Feb-14 20:00N 40°36' W 074°12'3 5.5
2018-Feb-14 19:27N 40°33' W 074°14'1 2.7
2018-Feb-14 18:59N 40°33' W 074°15'0 0.1
2018-Feb-14 12:05N 40°32' W 074°15'0 5.5
2018-Feb-14 12:00N 40°33' W 074°15'3 4.9
2018-Feb-14 11:25N 40°35' W 074°13'3 6.9
2018-Feb-14 11:00N 40°38' W 074°12'3 6.5
2018-Feb-14 10:29N 40°39' W 074°08'4 8.3
2018-Feb-14 10:00N 40°39' W 074°03'2 4.0
2018-Feb-14 09:30N 40°40' W 074°00'0 0.0
2018-Feb-14 09:00N 40°40' W 074°00'0 0.0
2018-Feb-14 08:30N 40°40' W 074°00'0 0.0
2018-Feb-14 08:00N 40°40' W 074°00'0 0.0
2018-Feb-14 07:30N 40°40' W 074°00'0 0.0
2018-Feb-14 07:00N 40°40' W 074°00'0 0.0
2018-Feb-14 06:30N 40°40' W 074°00'0 0.0
2018-Feb-14 06:00N 40°40' W 074°00'0 0.0
2018-Feb-14 05:30N 40°40' W 074°00'0 0.0
2018-Feb-14 05:00N 40°40' W 074°00'0 0.0
2018-Feb-14 04:30N 40°40' W 074°00'0 0.0
2018-Feb-14 04:00N 40°40' W 074°00'0 0.0
2018-Feb-14 03:30N 40°40' W 074°00'0 0.0
2018-Feb-14 03:00N 40°40' W 074°00'0 0.0
2018-Feb-14 02:30N 40°40' W 074°00'0 0.0
2018-Feb-14 02:00N 40°40' W 074°00'0 0.0
2018-Feb-14 01:30N 40°40' W 074°00'0 0.0
2018-Feb-14 01:00N 40°40' W 074°00'0 0.0
2018-Feb-14 00:30N 40°40' W 074°00'0 0.0
2018-Feb-14 00:00N 40°40' W 074°00'0 0.0
2018-Feb-13 23:30N 40°40' W 074°00'0 0.0
2018-Feb-13 23:00N 40°40' W 074°00'0 0.0
2018-Feb-13 22:30N 40°40' W 074°00'0 0.0
2018-Feb-13 22:00N 40°40' W 074°00'1 2.8
2018-Feb-13 21:30N 40°39' W 074°02'0 0.1
2018-Feb-13 21:00N 40°39' W 074°02'0 0.1
2018-Feb-13 20:30N 40°39' W 074°02'0 0.1
2018-Feb-13 20:00N 40°39' W 074°02'1 1.1
2018-Feb-13 19:30N 40°40' W 074°02'1 0.3
2018-Feb-13 17:46N 40°39' W 074°02'1 2.9
2018-Feb-13 17:30N 40°39' W 074°03'4 7.1
2018-Feb-13 17:00N 40°39' W 074°07'3 6.2
2018-Feb-13 16:30N 40°38' W 074°12'2 4.8
2018-Feb-13 16:00N 40°36' W 074°12'3 4.6
2018-Feb-13 15:18N 40°33' W 074°14'1 0.1
2018-Feb-13 07:39N 40°32' W 074°15'0 1.2
2018-Feb-13 07:23N 40°33' W 074°15'3 5.7
2018-Feb-13 06:52N 40°35' W 074°13'2 5.8
2018-Feb-13 06:28N 40°37' W 074°12'3 6.0
2018-Feb-13 06:00N 40°39' W 074°09'3 5.7
2018-Feb-13 05:30N 40°39' W 074°05'3 6.6
2018-Feb-13 05:00N 40°41' W 074°02'4 7.1
2018-Feb-13 04:31N 40°43' W 073°58'3 5.4
2018-Feb-13 04:00N 40°46' W 073°57'4 7.6
2018-Feb-13 03:30N 40°48' W 073°54'4 7.7
2018-Feb-13 02:59N 40°48' W 073°48'1 0.1
2018-Feb-12 12:34N 40°50' W 073°48'0 3.0
2018-Feb-12 12:30N 40°49' W 073°47'0 0.1
2018-Feb-12 11:46N 40°49' W 073°47'0 0.0
2018-Feb-12 11:29N 40°49' W 073°47'0 0.0
2018-Feb-12 10:57N 40°49' W 073°47'0 0.0
2018-Feb-12 10:30N 40°49' W 073°47'0 0.0
2018-Feb-12 09:59N 40°49' W 073°47'0 0.1
2018-Feb-12 09:28N 40°49' W 073°47'0 0.1
2018-Feb-12 08:58N 40°50' W 073°47'0 0.1
2018-Feb-12 08:30N 40°50' W 073°47'0 0.0
2018-Feb-12 08:00N 40°50' W 073°47'0 0.0
2018-Feb-12 07:26N 40°50' W 073°47'0 0.1
2018-Feb-12 07:00N 40°50' W 073°47'0 0.0
2018-Feb-12 06:00N 40°49' W 073°47'0 0.0
2018-Feb-12 05:20N 40°49' W 073°47'0 0.0
2018-Feb-12 04:42N 40°49' W 073°47'0 0.0
2018-Feb-12 04:30N 40°49' W 073°47'0 0.0
2018-Feb-12 03:56N 40°49' W 073°47'0 0.1
2018-Feb-12 03:30N 40°49' W 073°47'0 0.0
2018-Feb-12 03:00N 40°49' W 073°47'0 0.0
2018-Feb-12 01:55N 40°49' W 073°47'0 0.0
2018-Feb-12 01:29N 40°49' W 073°47'0 0.1
2018-Feb-12 00:59N 40°49' W 073°47'0 0.0
2018-Feb-11 23:03N 40°50' W 073°47'0 0.6
2018-Feb-11 22:52N 40°49' W 073°47'  
Track history (hours):
 
Tides and Currents Weather Stations Pressure Air Temp Water Temp Dewpoint Dewpoint Depression Visibility Wind Speed Wind Dir Waves Ship Positions

Eastern Dawn

Owner: EASTERN BARGE SERVICES INC, SYOSSET, NY. More information available from US FCC via Universal Licensing System and Coast Guard Vessel Documentation Center.

Last reported at 2018-Feb-21 22:30 UTC. Time now 2018-Feb-21 22:58 UTC.
Position N 40°41' W 074°02'.

Length 14 m; draft 2.5 m.

Type: Towing. MMSI: 367349170.

Date/timePositionNaut miles runAvg speedWind from/ knotsBaromVisibWave heightAir tempDewpointWater temp
2018-Feb-21 22:30N 40°41' W 074°02'4 8.4
2018-Feb-21 22:00N 40°44' W 073°58'5 9.5
2018-Feb-21 21:30N 40°48' W 073°54'4 7.8
2018-Feb-21 20:59N 40°48' W 073°49'3 0.2
2018-Feb-21 05:28N 40°52' W 073°49'1 2.6
2018-Feb-21 04:58N 40°51' W 073°48'2 4.4
2018-Feb-21 04:25N 40°48' W 073°48'3 6.0
2018-Feb-21 03:53N 40°48' W 073°52'0 0.1
2018-Feb-21 03:22N 40°48' W 073°52'0 0.0
2018-Feb-21 02:59N 40°48' W 073°52'0 0.0
2018-Feb-21 02:30N 40°48' W 073°52'0 0.0
2018-Feb-21 01:53N 40°48' W 073°52'0 0.0
2018-Feb-21 01:28N 40°48' W 073°52'0 0.0
2018-Feb-21 01:00N 40°48' W 073°52'0 0.1
2018-Feb-21 00:30N 40°48' W 073°52'0 0.1
2018-Feb-20 23:54N 40°48' W 073°52'0 0.1
2018-Feb-20 23:19N 40°48' W 073°52'0 0.0
2018-Feb-20 22:58N 40°48' W 073°52'0 0.0
2018-Feb-20 22:22N 40°48' W 073°52'0 0.0
2018-Feb-20 22:00N 40°48' W 073°52'0 0.0
2018-Feb-20 21:29N 40°48' W 073°52'0 0.0
2018-Feb-20 20:57N 40°48' W 073°52'0 0.0
2018-Feb-20 20:23N 40°48' W 073°52'0 0.0
2018-Feb-20 19:57N 40°48' W 073°52'0 0.0
2018-Feb-20 19:30N 40°48' W 073°52'0 0.0
2018-Feb-20 18:57N 40°48' W 073°52'1 3.1
2018-Feb-20 18:30N 40°48' W 073°54'3 6.1
2018-Feb-20 17:59N 40°46' W 073°57'3 7.1
2018-Feb-20 17:30N 40°42' W 073°59'4 7.4
2018-Feb-20 17:00N 40°40' W 074°03'4 7.0
2018-Feb-20 16:30N 40°39' W 074°07'3 6.9
2018-Feb-20 16:00N 40°38' W 074°11'1 1.9
2018-Feb-20 15:30N 40°38' W 074°12'0 0.0
2018-Feb-20 15:00N 40°38' W 074°12'0 0.0
2018-Feb-20 14:28N 40°38' W 074°12'0 0.0
2018-Feb-20 14:00N 40°38' W 074°12'1 1.7
2018-Feb-20 13:29N 40°37' W 074°12'1 0.1
2018-Feb-20 00:57N 40°36' W 074°12'3 5.9
2018-Feb-20 00:29N 40°38' W 074°12'3 7.1
2018-Feb-20 00:00N 40°39' W 074°07'4 7.5
2018-Feb-19 23:30N 40°40' W 074°03'4 7.5
2018-Feb-19 23:00N 40°43' W 073°59'5 8.6
2018-Feb-19 22:29N 40°47' W 073°56'2 4.4
2018-Feb-19 21:59N 40°48' W 073°54'0 0.0
2018-Feb-19 21:30N 40°48' W 073°54'0 0.0
2018-Feb-19 21:00N 40°48' W 073°54'0 0.0
2018-Feb-19 20:28N 40°48' W 073°54'0 0.0
2018-Feb-19 19:58N 40°48' W 073°54'0 0.0
2018-Feb-19 19:29N 40°48' W 073°54'0 0.0
2018-Feb-19 19:00N 40°48' W 073°54'0 0.0
2018-Feb-19 18:25N 40°48' W 073°54'0 0.0
2018-Feb-19 18:00N 40°48' W 073°54'0 0.0
2018-Feb-19 16:20N 40°48' W 073°54'0 0.0
2018-Feb-19 16:00N 40°48' W 073°54'0 0.0
2018-Feb-19 15:28N 40°48' W 073°54'0 0.0
2018-Feb-19 14:57N 40°48' W 073°54'0 0.0
2018-Feb-19 14:02N 40°48' W 073°54'0 0.1
2018-Feb-19 13:57N 40°48' W 073°54'1 2.2
2018-Feb-19 13:30N 40°47' W 073°55'5 9.1
2018-Feb-19 13:00N 40°43' W 073°58'4 8.4
2018-Feb-19 12:30N 40°40' W 074°02'3 5.2
2018-Feb-19 12:00N 40°39' W 074°05'0 0.1
2018-Feb-19 11:30N 40°39' W 074°05'0 0.0
2018-Feb-19 11:00N 40°39' W 074°05'0 0.0
2018-Feb-19 10:30N 40°39' W 074°05'0 0.0
2018-Feb-19 09:59N 40°39' W 074°05'0 0.0
2018-Feb-19 09:30N 40°39' W 074°05'0 0.0
2018-Feb-19 09:00N 40°39' W 074°05'0 0.0
2018-Feb-19 08:28N 40°39' W 074°05'0 0.0
2018-Feb-19 08:00N 40°39' W 074°05'0 0.0
2018-Feb-19 07:30N 40°39' W 074°05'0 0.0
2018-Feb-19 07:00N 40°39' W 074°05'0 0.0
2018-Feb-19 06:30N 40°39' W 074°05'0 0.0
2018-Feb-19 06:00N 40°39' W 074°05'0 0.0
2018-Feb-19 05:30N 40°39' W 074°05'0 0.0
2018-Feb-19 05:00N 40°39' W 074°05'0 0.0
2018-Feb-19 04:30N 40°39' W 074°05'0 0.0
2018-Feb-19 04:00N 40°39' W 074°05'0 0.0
2018-Feb-19 03:30N 40°39' W 074°05'0 0.0
2018-Feb-19 02:59N 40°39' W 074°05'0 0.0
2018-Feb-19 02:30N 40°39' W 074°05'0 0.0
2018-Feb-19 02:00N 40°39' W 074°05'0 0.0
2018-Feb-19 01:30N 40°39' W 074°05'0 0.1
2018-Feb-19 00:59N 40°39' W 074°05'3 5.5
2018-Feb-19 00:30N 40°41' W 074°02'3 6.3
2018-Feb-19 00:00N 40°43' W 073°59'2 4.6
2018-Feb-18 23:30N 40°44' W 073°56'0 0.5
2018-Feb-18 23:00N 40°44' W 073°56'0 0.0
2018-Feb-18 22:30N 40°44' W 073°56'0 0.0
2018-Feb-18 22:00N 40°44' W 073°56'0 0.0
2018-Feb-18 21:30N 40°44' W 073°56'0 0.0
2018-Feb-18 21:00N 40°44' W 073°56'0 0.0
2018-Feb-18 20:30N 40°44' W 073°56'0 0.0
2018-Feb-18 19:59N 40°44' W 073°56'0 0.0
2018-Feb-18 19:30N 40°44' W 073°56'0 0.0
2018-Feb-18 18:59N 40°44' W 073°56'0 0.0
2018-Feb-18 18:21N 40°44' W 073°56'0 0.0
2018-Feb-18 17:59N 40°44' W 073°56'0 0.0
2018-Feb-18 17:30N 40°44' W 073°56'0 0.0
2018-Feb-18 17:00N 40°44' W 073°56'0 0.0
2018-Feb-18 16:30N 40°44' W 073°56'0 0.0
2018-Feb-18 16:00N 40°44' W 073°56'0 0.0
2018-Feb-18 15:30N 40°44' W 073°56'0 0.0
2018-Feb-18 15:00N 40°44' W 073°56'0 0.0
2018-Feb-18 14:30N 40°44' W 073°56'0 0.0
2018-Feb-18 14:00N 40°44' W 073°56'0 0.0
2018-Feb-18 13:30N 40°44' W 073°56'0 0.0
2018-Feb-18 13:00N 40°44' W 073°56'0 0.0
2018-Feb-18 12:30N 40°44' W 073°56'0 0.0
2018-Feb-18 12:00N 40°44' W 073°56'1 1.2
2018-Feb-18 11:30N 40°44' W 073°57'1 2.9
2018-Feb-18 11:00N 40°43' W 073°58'3 6.4
2018-Feb-18 10:30N 40°41' W 074°01'3 6.0
2018-Feb-18 10:00N 40°39' W 074°04'3 6.4
2018-Feb-18 09:30N 40°39' W 074°08'2 4.5
2018-Feb-18 09:00N 40°38' W 074°11'3 5.4
2018-Feb-18 08:30N 40°36' W 074°12'3 5.0
2018-Feb-18 07:57N 40°33' W 074°14'1 0.1
2018-Feb-17 21:32N 40°33' W 074°15'0 0.1
2018-Feb-17 21:27N 40°33' W 074°15'3 4.8
2018-Feb-17 20:53N 40°35' W 074°13'3 7.3
2018-Feb-17 20:30N 40°37' W 074°12'3 6.3
2018-Feb-17 20:00N 40°39' W 074°08'3 6.4
2018-Feb-17 19:30N 40°39' W 074°04'3 5.4
2018-Feb-17 19:00N 40°41' W 074°01'4 7.4
2018-Feb-17 18:30N 40°43' W 073°58'4 8.9
2018-Feb-17 18:00N 40°47' W 073°55'4 8.9
2018-Feb-17 17:30N 40°48' W 073°49'2 3.7
2018-Feb-17 17:00N 40°49' W 073°47'0 0.0
2018-Feb-17 13:43N 40°49' W 073°47'0 0.1
2018-Feb-17 13:30N 40°49' W 073°47'0 0.0
2018-Feb-17 12:36N 40°49' W 073°47'0 0.0
2018-Feb-17 12:30N 40°49' W 073°47'0 0.0
2018-Feb-17 11:09N 40°49' W 073°47'0 0.0
2018-Feb-17 10:59N 40°49' W 073°47'0 0.0
2018-Feb-17 10:26N 40°49' W 073°47'0 0.0
2018-Feb-17 09:50N 40°49' W 073°47'0 0.0
2018-Feb-17 09:22N 40°49' W 073°47'0 0.0
2018-Feb-17 09:00N 40°49' W 073°47'0 0.0
2018-Feb-17 08:12N 40°49' W 073°47'0 0.0
2018-Feb-17 07:56N 40°49' W 073°47'0 0.0
2018-Feb-17 07:29N 40°49' W 073°47'0 0.0
2018-Feb-17 06:57N 40°49' W 073°47'0 0.0
2018-Feb-17 06:27N 40°49' W 073°47'0 0.0
2018-Feb-17 05:58N 40°49' W 073°47'0 0.0
2018-Feb-17 05:27N 40°49' W 073°47'0 0.0
2018-Feb-17 04:59N 40°49' W 073°47'3 0.2
2018-Feb-16 15:34N 40°52' W 073°49'1 1.7
2018-Feb-16 15:14N 40°51' W 073°49'1 5.7
2018-Feb-16 14:59N 40°50' W 073°48'1 1.3
2018-Feb-16 14:30N 40°49' W 073°47'0 0.0
2018-Feb-16 13:58N 40°49' W 073°47'1 1.5
2018-Feb-16 13:30N 40°49' W 073°47'3 5.2
2018-Feb-16 13:00N 40°48' W 073°51'4 7.6
2018-Feb-16 12:29N 40°47' W 073°56'4 8.7
2018-Feb-16 12:00N 40°43' W 073°58'4 8.1
2018-Feb-16 11:30N 40°40' W 074°02'3 6.4
2018-Feb-16 11:00N 40°39' W 074°06'3 5.4
2018-Feb-16 10:29N 40°39' W 074°09'3 5.2
2018-Feb-16 10:00N 40°37' W 074°12'2 0.2
2018-Feb-15 19:12N 40°35' W 074°12'1 7.9
2018-Feb-15 19:00N 40°37' W 074°12'3 6.6
2018-Feb-15 18:30N 40°39' W 074°09'3 6.7
2018-Feb-15 18:00N 40°39' W 074°05'4 8.5
2018-Feb-15 17:30N 40°42' W 074°00'5 9.5
2018-Feb-15 17:00N 40°46' W 073°57'5 9.1
2018-Feb-15 16:30N 40°48' W 073°51'4 0.3
2018-Feb-15 02:52N 40°52' W 073°49'1 3.5
2018-Feb-15 02:28N 40°50' W 073°48'1 0.5
2018-Feb-14 23:42N 40°49' W 073°47'1 5.3
2018-Feb-14 23:26N 40°48' W 073°48'4 8.7
2018-Feb-14 22:58N 40°48' W 073°54'5 9.9
2018-Feb-14 22:30N 40°45' W 073°58'4 8.1
2018-Feb-14 22:00N 40°41' W 074°01'3 7.0
2018-Feb-14 21:30N 40°39' W 074°04'3 5.6
2018-Feb-14 21:00N 40°39' W 074°08'3 5.6
2018-Feb-14 20:30N 40°38' W 074°12'2 4.6
2018-Feb-14 20:00N 40°36' W 074°12'3 5.5
2018-Feb-14 19:27N 40°33' W 074°14'1 2.7
2018-Feb-14 18:59N 40°33' W 074°15'0 0.1
2018-Feb-14 12:05N 40°32' W 074°15'0 5.5
2018-Feb-14 12:00N 40°33' W 074°15'3 4.9
2018-Feb-14 11:25N 40°35' W 074°13'3 6.9
2018-Feb-14 11:00N 40°38' W 074°12'3 6.5
2018-Feb-14 10:29N 40°39' W 074°08'4 8.3
2018-Feb-14 10:00N 40°39' W 074°03'2 4.0
2018-Feb-14 09:30N 40°40' W 074°00'0 0.0
2018-Feb-14 09:00N 40°40' W 074°00'0 0.0
2018-Feb-14 08:30N 40°40' W 074°00'0 0.0
2018-Feb-14 08:00N 40°40' W 074°00'0 0.0
2018-Feb-14 07:30N 40°40' W 074°00'0 0.0
2018-Feb-14 07:00N 40°40' W 074°00'0 0.0
2018-Feb-14 06:30N 40°40' W 074°00'0 0.0
2018-Feb-14 06:00N 40°40' W 074°00'0 0.0
2018-Feb-14 05:30N 40°40' W 074°00'0 0.0
2018-Feb-14 05:00N 40°40' W 074°00'0 0.0
2018-Feb-14 04:30N 40°40' W 074°00'0 0.0
2018-Feb-14 04:00N 40°40' W 074°00'0 0.0
2018-Feb-14 03:30N 40°40' W 074°00'0 0.0
2018-Feb-14 03:00N 40°40' W 074°00'0 0.0
2018-Feb-14 02:30N 40°40' W 074°00'0 0.0
2018-Feb-14 02:00N 40°40' W 074°00'0 0.0
2018-Feb-14 01:30N 40°40' W 074°00'0 0.0
2018-Feb-14 01:00N 40°40' W 074°00'0 0.0
2018-Feb-14 00:30N 40°40' W 074°00'0 0.0
2018-Feb-14 00:00N 40°40' W 074°00'0 0.0
2018-Feb-13 23:30N 40°40' W 074°00'0 0.0
2018-Feb-13 23:00N 40°40' W 074°00'0 0.0
2018-Feb-13 22:30N 40°40' W 074°00'0 0.0
2018-Feb-13 22:00N 40°40' W 074°00'1 2.8
2018-Feb-13 21:30N 40°39' W 074°02'0 0.1
2018-Feb-13 21:00N 40°39' W 074°02'0 0.1
2018-Feb-13 20:30N 40°39' W 074°02'0 0.1
2018-Feb-13 20:00N 40°39' W 074°02'1 1.1
2018-Feb-13 19:30N 40°40' W 074°02'1 0.3
2018-Feb-13 17:46N 40°39' W 074°02'1 2.9
2018-Feb-13 17:30N 40°39' W 074°03'4 7.1
2018-Feb-13 17:00N 40°39' W 074°07'3 6.2
2018-Feb-13 16:30N 40°38' W 074°12'2 4.8
2018-Feb-13 16:00N 40°36' W 074°12'3 4.6
2018-Feb-13 15:18N 40°33' W 074°14'1 0.1
2018-Feb-13 07:39N 40°32' W 074°15'0 1.2
2018-Feb-13 07:23N 40°33' W 074°15'3 5.7
2018-Feb-13 06:52N 40°35' W 074°13'2 5.8
2018-Feb-13 06:28N 40°37' W 074°12'3 6.0
2018-Feb-13 06:00N 40°39' W 074°09'3 5.7
2018-Feb-13 05:30N 40°39' W 074°05'3 6.6
2018-Feb-13 05:00N 40°41' W 074°02'4 7.1
2018-Feb-13 04:31N 40°43' W 073°58'3 5.4
2018-Feb-13 04:00N 40°46' W 073°57'4 7.6
2018-Feb-13 03:30N 40°48' W 073°54'4 7.7
2018-Feb-13 02:59N 40°48' W 073°48'1 0.1
2018-Feb-12 12:34N 40°50' W 073°48'0 3.0
2018-Feb-12 12:30N 40°49' W 073°47'0 0.1
2018-Feb-12 11:46N 40°49' W 073°47'0 0.0
2018-Feb-12 11:29N 40°49' W 073°47'0 0.0
2018-Feb-12 10:57N 40°49' W 073°47'0 0.0
2018-Feb-12 10:30N 40°49' W 073°47'0 0.0
2018-Feb-12 09:59N 40°49' W 073°47'0 0.1
2018-Feb-12 09:28N 40°49' W 073°47'0 0.1
2018-Feb-12 08:58N 40°50' W 073°47'0 0.1
2018-Feb-12 08:30N 40°50' W 073°47'0 0.0
2018-Feb-12 08:00N 40°50' W 073°47'0 0.0
2018-Feb-12 07:26N 40°50' W 073°47'0 0.1
2018-Feb-12 07:00N 40°50' W 073°47'0 0.0
2018-Feb-12 06:00N 40°49' W 073°47'0 0.0
2018-Feb-12 05:20N 40°49' W 073°47'0 0.0
2018-Feb-12 04:42N 40°49' W 073°47'0 0.0
2018-Feb-12 04:30N 40°49' W 073°47'0 0.0
2018-Feb-12 03:56N 40°49' W 073°47'0 0.1
2018-Feb-12 03:30N 40°49' W 073°47'0 0.0
2018-Feb-12 03:00N 40°49' W 073°47'0 0.0
2018-Feb-12 01:55N 40°49' W 073°47'0 0.0
2018-Feb-12 01:29N 40°49' W 073°47'0 0.1
2018-Feb-12 00:59N 40°49' W 073°47'0 0.0
2018-Feb-11 23:03N 40°50' W 073°47'0 0.6
2018-Feb-11 22:52N 40°49' W 073°47'  

Dump ship's entire track history